createdAt,value
2017-02-22T00:00:44.058Z,21.94
2017-02-22T00:01:44.475Z,21.86
2017-02-22T00:02:44.531Z,21.98
2017-02-22T00:03:44.540Z,21.86
2017-02-22T00:04:44.580Z,21.9
2017-02-22T00:05:44.601Z,21.83
2017-02-22T00:06:45.026Z,21.8
2017-02-22T00:07:45.052Z,21.83
2017-02-22T00:08:45.084Z,21.88
2017-02-22T00:09:45.109Z,21.9
2017-02-22T00:10:44.333Z,21.86
2017-02-22T00:11:45.418Z,21.82
2017-02-22T00:12:44.395Z,21.88
2017-02-22T00:13:44.419Z,21.84
2017-02-22T00:14:44.849Z,21.74
2017-02-22T00:15:44.861Z,21.9
2017-02-22T00:16:45.552Z,21.79
2017-02-22T00:17:44.931Z,21.82
2017-02-22T00:18:44.967Z,21.8
2017-02-22T00:19:45.371Z,21.84
2017-02-22T00:20:45.425Z,21.82
2017-02-22T00:21:45.334Z,21.92
2017-02-22T00:22:44.669Z,21.84
2017-02-22T00:23:45.495Z,21.8
2017-02-22T00:24:45.123Z,21.84
2017-02-22T00:25:45.148Z,21.84
2017-02-22T00:26:45.481Z,21.86
2017-02-22T00:27:45.235Z,21.79
2017-02-22T00:28:44.832Z,21.8
2017-02-22T00:29:45.660Z,21.82
2017-02-22T00:30:45.681Z,21.82
2017-02-22T00:31:45.573Z,21.77
2017-02-22T00:32:44.942Z,21.72
2017-02-22T00:33:45.371Z,21.8
2017-02-22T00:34:45.411Z,21.75
2017-02-22T00:35:45.832Z,21.79
2017-02-22T00:36:46.097Z,21.79
2017-02-22T00:37:45.474Z,21.67
2017-02-22T00:38:45.506Z,21.71
2017-02-22T00:39:45.530Z,21.77
2017-02-22T00:40:45.163Z,21.72
2017-02-22T00:41:45.884Z,21.75
2017-02-22T00:42:46.006Z,21.72
2017-02-22T00:43:45.251Z,21.69
2017-02-22T00:44:45.679Z,21.68
2017-02-22T00:45:45.695Z,21.69
2017-02-22T00:46:45.330Z,21.74
2017-02-22T00:47:45.752Z,21.71
2017-02-22T00:48:46.190Z,21.68
2017-02-22T00:49:45.819Z,21.68
2017-02-22T00:50:45.843Z,21.65
2017-02-22T00:51:45.860Z,21.69
2017-02-22T00:52:46.277Z,21.67
2017-02-22T00:53:46.318Z,21.65
2017-02-22T00:54:46.338Z,21.58
2017-02-22T00:55:46.374Z,21.53
2017-02-22T00:56:45.612Z,21.61
2017-02-22T00:57:46.450Z,21.62
2017-02-22T00:58:46.460Z,21.58
2017-02-22T00:59:46.081Z,21.56
2017-02-22T01:00:46.120Z,21.59
2017-02-22T01:01:46.139Z,21.65
2017-02-22T01:02:46.567Z,21.65
2017-02-22T01:03:46.591Z,21.56
2017-02-22T01:04:46.217Z,21.56
2017-02-22T01:05:46.266Z,21.65
2017-02-22T01:06:46.706Z,21.56
2017-02-22T01:07:46.307Z,21.54
2017-02-22T01:08:46.337Z,21.58
2017-02-22T01:09:45.962Z,21.56
2017-02-22T01:10:46.786Z,21.54
2017-02-22T01:11:46.805Z,21.61
2017-02-22T01:12:46.463Z,21.61
2017-02-22T01:13:46.476Z,21.58
2017-02-22T01:14:46.897Z,21.58
2017-02-22T01:15:46.921Z,21.64
2017-02-22T01:16:46.942Z,21.59
2017-02-22T01:17:46.975Z,21.61
2017-02-22T01:18:46.600Z,21.61
2017-02-22T01:19:46.644Z,21.59
2017-02-22T01:20:47.069Z,21.58
2017-02-22T01:21:47.077Z,21.56
2017-02-22T01:22:47.110Z,21.56
2017-02-22T01:23:46.738Z,21.59
2017-02-22T01:24:47.176Z,21.52
2017-02-22T01:25:46.798Z,21.47
2017-02-22T01:26:46.820Z,21.53
2017-02-22T01:27:47.498Z,21.46
2017-02-22T01:28:46.482Z,21.5
2017-02-22T01:29:47.300Z,21.49
2017-02-22T01:30:46.936Z,21.46
2017-02-22T01:31:46.577Z,21.47
2017-02-22T01:32:47.634Z,21.52
2017-02-22T01:33:47.015Z,21.46
2017-02-22T01:34:47.047Z,21.44
2017-02-22T01:35:47.462Z,21.49
2017-02-22T01:36:47.096Z,21.46
2017-02-22T01:37:47.768Z,21.46
2017-02-22T01:38:47.154Z,21.44
2017-02-22T01:39:47.187Z,21.43
2017-02-22T01:40:47.203Z,21.49
2017-02-22T01:41:47.636Z,21.49
2017-02-22T01:42:47.908Z,21.49
2017-02-22T01:43:46.894Z,21.46
2017-02-22T01:44:47.315Z,21.44
2017-02-22T01:45:47.364Z,21.47
2017-02-22T01:46:47.370Z,21.4
2017-02-22T01:47:48.093Z,21.38
2017-02-22T01:48:48.064Z,21.5
2017-02-22T01:49:47.457Z,21.43
2017-02-22T01:50:47.479Z,21.4
2017-02-22T01:51:47.503Z,21.46
2017-02-22T01:52:47.393Z,21.4
2017-02-22T01:53:47.962Z,21.46
2017-02-22T01:54:47.994Z,21.43
2017-02-22T01:55:47.618Z,21.44
2017-02-22T01:56:47.243Z,21.47
2017-02-22T01:57:48.328Z,21.38
2017-02-22T01:58:47.718Z,21.4
2017-02-22T01:59:47.733Z,21.42
2017-02-22T02:00:48.157Z,21.32
2017-02-22T02:01:47.782Z,21.4
2017-02-22T02:02:47.696Z,21.38
2017-02-22T02:03:47.840Z,21.42
2017-02-22T02:04:48.268Z,21.43
2017-02-22T02:05:48.290Z,21.42
2017-02-22T02:06:47.918Z,21.35
2017-02-22T02:07:47.799Z,21.4
2017-02-22T02:08:47.975Z,21.31
2017-02-22T02:09:48.001Z,21.35
2017-02-22T02:10:48.423Z,21.32
2017-02-22T02:11:48.459Z,21.38
2017-02-22T02:12:48.728Z,21.34
2017-02-22T02:13:48.132Z,21.37
2017-02-22T02:14:48.133Z,21.38
2017-02-22T02:15:48.190Z,21.35
2017-02-22T02:16:48.602Z,21.37
2017-02-22T02:17:48.467Z,21.32
2017-02-22T02:18:48.244Z,21.34
2017-02-22T02:19:48.272Z,21.37
2017-02-22T02:20:48.299Z,21.37
2017-02-22T02:21:48.726Z,21.43
2017-02-22T02:22:49.015Z,21.34
2017-02-22T02:23:48.800Z,21.35
2017-02-22T02:24:48.808Z,21.42
2017-02-22T02:25:48.448Z,21.31
2017-02-22T02:26:48.073Z,21.34
2017-02-22T02:27:49.142Z,21.34
2017-02-22T02:28:48.136Z,21.35
2017-02-22T02:29:48.943Z,21.38
2017-02-22T02:30:48.973Z,21.38
2017-02-22T02:31:48.606Z,21.34
2017-02-22T02:32:48.886Z,21.37
2017-02-22T02:33:48.654Z,21.34
2017-02-22T02:34:48.688Z,21.28
2017-02-22T02:35:49.120Z,21.27
2017-02-22T02:36:48.781Z,21.4
2017-02-22T02:37:49.462Z,21.4
2017-02-22T02:38:48.398Z,21.38
2017-02-22T02:39:48.843Z,21.31
2017-02-22T02:40:49.240Z,21.31
2017-02-22T02:41:48.881Z,21.31
2017-02-22T02:42:49.178Z,21.35
2017-02-22T02:43:49.339Z,21.32
2017-02-22T02:44:48.959Z,21.35
2017-02-22T02:45:48.988Z,21.28
2017-02-22T02:46:49.413Z,21.34
2017-02-22T02:47:49.297Z,21.42
2017-02-22T02:48:49.467Z,21.29
2017-02-22T02:49:49.491Z,21.24
2017-02-22T02:50:49.119Z,21.22
2017-02-22T02:51:49.149Z,21.32
2017-02-22T02:52:49.424Z,21.24
2017-02-22T02:53:49.206Z,21.24
2017-02-22T02:54:49.230Z,21.31
2017-02-22T02:55:48.867Z,21.31
2017-02-22T02:56:49.281Z,21.25
2017-02-22T02:57:49.564Z,21.25
2017-02-22T02:58:49.734Z,21.25
2017-02-22T02:59:49.766Z,21.27
2017-02-22T03:00:49.800Z,21.27
2017-02-22T03:01:49.424Z,21.28
2017-02-22T03:02:49.460Z,21.28
2017-02-22T03:03:49.080Z,21.24
2017-02-22T03:04:49.910Z,21.28
2017-02-22T03:05:49.535Z,21.28
2017-02-22T03:06:49.563Z,21.28
2017-02-22T03:07:49.986Z,21.24
2017-02-22T03:08:50.029Z,21.28
2017-02-22T03:09:49.659Z,21.27
2017-02-22T03:10:49.679Z,21.27
2017-02-22T03:11:49.712Z,21.27
2017-02-22T03:12:50.132Z,21.29
2017-02-22T03:13:50.156Z,21.24
2017-02-22T03:14:49.785Z,21.17
2017-02-22T03:15:49.410Z,21.22
2017-02-22T03:16:50.243Z,21.21
2017-02-22T03:17:49.856Z,21.12
2017-02-22T03:18:49.876Z,21.22
2017-02-22T03:19:50.308Z,21.21
2017-02-22T03:20:49.942Z,21.22
2017-02-22T03:21:49.967Z,21.19
2017-02-22T03:22:50.384Z,21.24
2017-02-22T03:23:50.416Z,21.14
2017-02-22T03:24:50.456Z,21.19
2017-02-22T03:25:50.469Z,21.24
2017-02-22T03:26:50.520Z,21.22
2017-02-22T03:27:50.126Z,21.17
2017-02-22T03:28:49.767Z,21.24
2017-02-22T03:29:49.803Z,21.22
2017-02-22T03:30:50.221Z,21.24
2017-02-22T03:31:50.641Z,21.17
2017-02-22T03:32:50.266Z,21.16
2017-02-22T03:33:50.287Z,21.12
2017-02-22T03:34:50.340Z,21.19
2017-02-22T03:35:50.769Z,21.19
2017-02-22T03:36:50.377Z,21.13
2017-02-22T03:37:50.808Z,21.22
2017-02-22T03:38:50.434Z,21.16
2017-02-22T03:39:50.867Z,21.24
2017-02-22T03:40:50.493Z,21.22
2017-02-22T03:41:50.128Z,21.1
2017-02-22T03:42:50.934Z,21.12
2017-02-22T03:43:50.827Z,21.22
2017-02-22T03:44:50.590Z,21.14
2017-02-22T03:45:50.236Z,21.16
2017-02-22T03:46:50.653Z,21.16
2017-02-22T03:47:51.076Z,21.17
2017-02-22T03:48:51.358Z,21.17
2017-02-22T03:49:51.126Z,21.17
2017-02-22T03:50:51.159Z,21.13
2017-02-22T03:51:50.783Z,21.16
2017-02-22T03:52:50.817Z,21.16
2017-02-22T03:53:51.489Z,21.16
2017-02-22T03:54:50.470Z,21.14
2017-02-22T03:55:51.296Z,21.16
2017-02-22T03:56:50.916Z,21.16
2017-02-22T03:57:50.949Z,21.12
2017-02-22T03:58:51.242Z,21.14
2017-02-22T03:59:50.615Z,21.1
2017-02-22T04:00:51.430Z,21.16
2017-02-22T04:01:51.060Z,21.1
2017-02-22T04:02:51.079Z,21.13
2017-02-22T04:03:51.378Z,21.04
2017-02-22T04:04:50.767Z,21.1
2017-02-22T04:05:50.787Z,21.07
2017-02-22T04:06:51.616Z,21.07
2017-02-22T04:07:51.616Z,21.06
2017-02-22T04:08:51.108Z,21.07
2017-02-22T04:09:50.895Z,21.12
2017-02-22T04:10:51.307Z,21.1
2017-02-22T04:11:51.736Z,21.09
2017-02-22T04:12:51.751Z,21.06
2017-02-22T04:13:52.073Z,21.04
2017-02-22T04:14:51.807Z,21.06
2017-02-22T04:15:51.042Z,21.12
2017-02-22T04:16:51.864Z,21.04
2017-02-22T04:17:51.503Z,21.06
2017-02-22T04:18:51.781Z,20.95
2017-02-22T04:19:51.546Z,21.03
2017-02-22T04:20:52.006Z,20.98
2017-02-22T04:21:51.610Z,21.04
2017-02-22T04:22:51.628Z,20.97
2017-02-22T04:23:51.921Z,20.97
2017-02-22T04:24:52.097Z,21.03
2017-02-22T04:25:52.146Z,21.03
2017-02-22T04:26:51.735Z,21.03
2017-02-22T04:27:51.768Z,21.04
2017-02-22T04:28:52.433Z,21.07
2017-02-22T04:29:51.818Z,21.07
2017-02-22T04:30:52.251Z,20.97
2017-02-22T04:31:51.883Z,20.95
2017-02-22T04:32:51.918Z,21.04
2017-02-22T04:33:51.797Z,21.06
2017-02-22T04:34:51.978Z,20.89
2017-02-22T04:35:52.395Z,20.95
2017-02-22T04:36:52.012Z,20.95
2017-02-22T04:37:52.435Z,21.09
2017-02-22T04:38:52.708Z,21.07
2017-02-22T04:39:52.109Z,20.95
2017-02-22T04:40:52.118Z,20.95
2017-02-22T04:41:52.554Z,20.98
2017-02-22T04:42:51.779Z,20.99
2017-02-22T04:43:52.600Z,20.97
2017-02-22T04:44:52.229Z,20.97
2017-02-22T04:45:52.274Z,20.99
2017-02-22T04:46:52.299Z,20.92
2017-02-22T04:47:51.916Z,20.98
2017-02-22T04:48:52.733Z,20.98
2017-02-22T04:49:52.361Z,20.98
2017-02-22T04:50:52.386Z,21.01
2017-02-22T04:51:52.413Z,20.91
2017-02-22T04:52:52.455Z,20.99
2017-02-22T04:53:52.100Z,20.97
2017-02-22T04:54:52.501Z,20.92
2017-02-22T04:55:52.925Z,20.95
2017-02-22T04:56:52.187Z,20.92
2017-02-22T04:57:52.583Z,20.85
2017-02-22T04:58:53.012Z,20.95
2017-02-22T04:59:53.049Z,20.97
2017-02-22T05:00:53.070Z,20.95
2017-02-22T05:01:53.095Z,20.91
2017-02-22T05:02:52.723Z,20.94
2017-02-22T05:03:52.751Z,20.92
2017-02-22T05:04:52.800Z,21.01
2017-02-22T05:05:53.193Z,20.98
2017-02-22T05:06:52.842Z,20.91
2017-02-22T05:07:53.251Z,20.88
2017-02-22T05:08:52.884Z,21.03
2017-02-22T05:09:53.304Z,21.04
2017-02-22T05:10:52.933Z,21.03
2017-02-22T05:11:53.362Z,21.03
2017-02-22T05:12:53.378Z,20.98
2017-02-22T05:13:53.016Z,20.88
2017-02-22T05:14:53.044Z,21.04
2017-02-22T05:15:53.480Z,20.99
2017-02-22T05:16:53.098Z,20.98
2017-02-22T05:17:53.127Z,20.98
2017-02-22T05:18:53.563Z,20.95
2017-02-22T05:19:53.195Z,20.98
2017-02-22T05:20:53.211Z,20.92
2017-02-22T05:21:53.231Z,21.01
2017-02-22T05:22:53.262Z,20.94
2017-02-22T05:23:53.683Z,20.88
2017-02-22T05:24:53.316Z,20.91
2017-02-22T05:25:53.736Z,20.94
2017-02-22T05:26:53.764Z,20.97
2017-02-22T05:27:53.433Z,20.97
2017-02-22T05:28:53.022Z,20.98
2017-02-22T05:29:53.707Z,20.98
2017-02-22T05:30:53.072Z,20.99
2017-02-22T05:31:53.493Z,20.97
2017-02-22T05:32:53.533Z,21.01
2017-02-22T05:33:53.187Z,20.95
2017-02-22T05:34:53.847Z,21.04
2017-02-22T05:35:53.627Z,20.94
2017-02-22T05:36:54.040Z,21.06
2017-02-22T05:37:54.069Z,21.06
2017-02-22T05:38:54.097Z,21.04
2017-02-22T05:39:54.382Z,21.03
2017-02-22T05:40:53.747Z,20.95
2017-02-22T05:41:54.213Z,21.07
2017-02-22T05:42:53.816Z,21.1
2017-02-22T05:43:53.838Z,21.06
2017-02-22T05:44:54.506Z,21.13
2017-02-22T05:45:53.491Z,21.1
2017-02-22T05:46:53.908Z,21.1
2017-02-22T05:47:53.933Z,21.17
2017-02-22T05:48:54.366Z,21.13
2017-02-22T05:49:54.232Z,21.1
2017-02-22T05:50:53.618Z,21.19
2017-02-22T05:51:54.052Z,21.19
2017-02-22T05:52:54.088Z,21.24
2017-02-22T05:53:54.101Z,21.24
2017-02-22T05:54:54.393Z,21.24
2017-02-22T05:55:54.158Z,21.25
2017-02-22T05:56:54.195Z,21.28
2017-02-22T05:57:54.207Z,21.17
2017-02-22T05:58:54.645Z,21.19
2017-02-22T05:59:54.518Z,21.28
2017-02-22T06:00:54.287Z,21.32
2017-02-22T06:01:54.719Z,21.37
2017-02-22T06:02:54.744Z,21.34
2017-02-22T06:03:54.380Z,21.29
2017-02-22T06:04:54.660Z,21.34
2017-02-22T06:05:54.441Z,21.44
2017-02-22T06:06:54.851Z,21.42
2017-02-22T06:07:54.105Z,21.35
2017-02-22T06:08:54.512Z,21.42
2017-02-22T06:09:54.793Z,21.44
2017-02-22T06:10:54.958Z,21.4
2017-02-22T06:11:54.584Z,21.4
2017-02-22T06:12:55.026Z,21.44
2017-02-22T06:13:55.040Z,21.54
2017-02-22T06:14:55.328Z,21.47
2017-02-22T06:15:55.097Z,21.52
2017-02-22T06:16:55.127Z,21.52
2017-02-22T06:17:54.370Z,21.54
2017-02-22T06:18:54.379Z,21.54
2017-02-22T06:19:55.102Z,21.61
2017-02-22T06:20:55.245Z,21.62
2017-02-22T06:21:54.870Z,21.59
2017-02-22T06:22:54.888Z,21.62
2017-02-22T06:23:54.916Z,21.54
2017-02-22T06:24:55.200Z,21.56
2017-02-22T06:25:54.969Z,21.58
2017-02-22T06:26:54.990Z,21.56
2017-02-22T06:27:55.419Z,21.67
2017-02-22T06:28:55.468Z,21.74
2017-02-22T06:29:55.748Z,21.71
2017-02-22T06:30:55.121Z,21.69
2017-02-22T06:31:55.149Z,21.79
2017-02-22T06:32:54.768Z,21.69
2017-02-22T06:33:55.591Z,21.75
2017-02-22T06:34:55.223Z,21.75
2017-02-22T06:35:55.253Z,21.72
2017-02-22T06:36:55.273Z,21.8
2017-02-22T06:37:55.698Z,21.79
2017-02-22T06:38:55.723Z,21.75
2017-02-22T06:39:55.356Z,21.83
2017-02-22T06:40:55.389Z,21.84
2017-02-22T06:41:55.397Z,21.83
2017-02-22T06:42:55.841Z,21.79
2017-02-22T06:43:55.851Z,21.94
2017-02-22T06:44:55.890Z,21.86
2017-02-22T06:45:55.916Z,21.9
2017-02-22T06:46:55.144Z,21.86
2017-02-22T06:47:55.973Z,21.83
2017-02-22T06:48:55.602Z,21.79
2017-02-22T06:49:56.027Z,21.83
2017-02-22T06:50:55.655Z,21.84
2017-02-22T06:51:55.684Z,21.84
2017-02-22T06:52:56.099Z,21.9
2017-02-22T06:53:56.126Z,21.88
2017-02-22T06:54:55.775Z,21.83
2017-02-22T06:55:56.196Z,21.75
2017-02-22T06:56:55.822Z,21.8
2017-02-22T06:57:56.241Z,21.8
2017-02-22T06:58:56.269Z,21.91
2017-02-22T06:59:56.310Z,21.88
2017-02-22T07:00:56.332Z,21.98
2017-02-22T07:01:56.367Z,21.9
2017-02-22T07:02:56.375Z,21.82
2017-02-22T07:03:56.012Z,21.82
2017-02-22T07:04:56.445Z,21.88
2017-02-22T07:05:55.677Z,21.8
2017-02-22T07:06:56.098Z,21.86
2017-02-22T07:07:56.515Z,21.9
2017-02-22T07:08:56.182Z,21.94
2017-02-22T07:09:55.774Z,21.86
2017-02-22T07:10:56.859Z,21.99
2017-02-22T07:11:56.239Z,21.8
2017-02-22T07:12:56.673Z,21.96
2017-02-22T07:13:56.689Z,21.96
2017-02-22T07:14:56.313Z,21.91
2017-02-22T07:15:56.584Z,21.96
2017-02-22T07:16:56.759Z,21.98
2017-02-22T07:17:56.399Z,21.96
2017-02-22T07:18:56.421Z,21.92
2017-02-22T07:19:56.841Z,21.9
2017-02-22T07:20:56.746Z,21.91
2017-02-22T07:21:56.507Z,21.91
2017-02-22T07:22:56.530Z,21.92
2017-02-22T07:23:56.956Z,21.94
2017-02-22T07:24:56.592Z,21.92
2017-02-22T07:25:57.342Z,21.94
2017-02-22T07:26:57.038Z,21.88
2017-02-22T07:27:57.076Z,21.9
2017-02-22T07:28:57.099Z,21.86
2017-02-22T07:29:56.725Z,21.92
2017-02-22T07:30:57.401Z,21.9
2017-02-22T07:31:56.381Z,21.9
2017-02-22T07:32:56.816Z,21.83
2017-02-22T07:33:57.233Z,21.94
2017-02-22T07:34:56.861Z,21.91
2017-02-22T07:35:57.150Z,21.94
2017-02-22T07:36:56.918Z,21.84
2017-02-22T07:37:56.564Z,21.83
2017-02-22T07:38:56.977Z,21.84
2017-02-22T07:39:57.405Z,21.9
2017-02-22T07:40:57.680Z,21.82
2017-02-22T07:41:56.667Z,21.96
2017-02-22T07:42:57.079Z,21.94
2017-02-22T07:43:57.112Z,21.8
2017-02-22T07:44:56.753Z,21.86
2017-02-22T07:45:57.566Z,21.9
2017-02-22T07:46:57.206Z,21.82
2017-02-22T07:47:57.214Z,21.74
2017-02-22T07:48:57.671Z,21.86
2017-02-22T07:49:57.672Z,21.83
2017-02-22T07:50:57.697Z,21.82
2017-02-22T07:51:57.331Z,21.79
2017-02-22T07:52:56.963Z,21.83
2017-02-22T07:53:57.776Z,21.8
2017-02-22T07:54:57.420Z,21.79
2017-02-22T07:55:57.837Z,21.8
2017-02-22T07:56:57.867Z,21.77
2017-02-22T07:57:57.491Z,21.74
2017-02-22T07:58:57.919Z,21.72
2017-02-22T07:59:57.151Z,21.83
2017-02-22T08:00:57.201Z,21.72
2017-02-22T08:01:58.012Z,21.77
2017-02-22T08:02:57.630Z,21.74
2017-02-22T08:03:57.655Z,21.75
2017-02-22T08:04:57.688Z,21.69
2017-02-22T08:05:57.339Z,21.72
2017-02-22T08:06:57.749Z,21.71
2017-02-22T08:07:57.778Z,21.72
2017-02-22T08:08:58.203Z,21.74
2017-02-22T08:09:58.228Z,21.75
2017-02-22T08:10:57.853Z,21.65
2017-02-22T08:11:57.905Z,21.69
2017-02-22T08:12:57.903Z,21.68
2017-02-22T08:13:57.926Z,21.68
2017-02-22T08:14:57.979Z,21.71
2017-02-22T08:15:57.593Z,21.71
2017-02-22T08:16:58.670Z,21.67
2017-02-22T08:17:58.048Z,21.68
2017-02-22T08:18:58.083Z,21.67
2017-02-22T08:19:58.495Z,21.56
2017-02-22T08:20:58.124Z,21.56
2017-02-22T08:21:58.805Z,21.59
2017-02-22T08:22:58.581Z,21.56
2017-02-22T08:23:58.602Z,21.61
2017-02-22T08:24:58.626Z,21.64
2017-02-22T08:25:58.264Z,21.62
2017-02-22T08:26:58.545Z,21.53
2017-02-22T08:27:58.321Z,21.59
2017-02-22T08:28:58.371Z,21.64
2017-02-22T08:29:58.775Z,21.62
2017-02-22T08:30:58.404Z,21.53
2017-02-22T08:31:58.286Z,21.62
2017-02-22T08:32:58.461Z,21.54
2017-02-22T08:33:58.898Z,21.59
2017-02-22T08:34:58.503Z,21.59
2017-02-22T08:35:58.944Z,21.59
2017-02-22T08:36:58.425Z,21.65
2017-02-22T08:37:58.594Z,21.56
2017-02-22T08:38:59.030Z,21.64
2017-02-22T08:39:59.035Z,21.58
2017-02-22T08:40:58.676Z,21.58
2017-02-22T08:41:58.556Z,21.61
2017-02-22T08:42:58.732Z,21.52
2017-02-22T08:43:58.362Z,21.54
2017-02-22T08:44:59.195Z,21.61
2017-02-22T08:45:58.811Z,21.59
2017-02-22T08:46:58.692Z,21.47
2017-02-22T08:47:59.269Z,21.5
2017-02-22T08:48:59.286Z,21.53
2017-02-22T08:49:59.327Z,21.47
2017-02-22T08:50:59.343Z,21.5
2017-02-22T08:51:59.235Z,21.52
2017-02-22T08:52:58.613Z,21.46
2017-02-22T08:53:59.418Z,21.44
2017-02-22T08:54:59.059Z,21.47
2017-02-22T08:55:59.495Z,21.42
2017-02-22T08:56:59.380Z,21.49
2017-02-22T08:57:59.154Z,21.49
2017-02-22T08:58:59.169Z,21.47
2017-02-22T08:59:59.198Z,21.37
2017-02-22T09:00:59.239Z,21.42
2017-02-22T09:01:59.515Z,21.43
2017-02-22T09:02:59.685Z,21.43
2017-02-22T09:03:59.308Z,21.42
2017-02-22T09:04:59.345Z,21.46
2017-02-22T09:05:59.763Z,21.4
2017-02-22T09:06:59.251Z,21.42
2017-02-22T09:07:59.417Z,21.43
2017-02-22T09:08:59.445Z,21.4
2017-02-22T09:09:59.477Z,21.4
2017-02-22T09:10:59.511Z,21.46
2017-02-22T09:11:59.774Z,21.46
2017-02-22T09:12:59.151Z,21.43
2017-02-22T09:13:59.585Z,21.37
2017-02-22T09:15:00.001Z,21.46
2017-02-22T09:16:00.042Z,21.43
2017-02-22T09:17:00.330Z,21.38
2017-02-22T09:18:00.096Z,21.37
2017-02-22T09:19:00.124Z,21.37
2017-02-22T09:19:59.348Z,21.4
2017-02-22T09:20:59.373Z,21.34
2017-02-22T09:22:00.445Z,21.37
2017-02-22T09:22:59.439Z,21.32
2017-02-22T09:24:00.244Z,21.27
2017-02-22T09:25:00.307Z,21.42
2017-02-22T09:25:59.910Z,21.32
2017-02-22T09:27:00.186Z,21.35
2017-02-22T09:27:59.584Z,21.34
2017-02-22T09:29:00.386Z,21.38
2017-02-22T09:30:00.013Z,21.34
2017-02-22T09:31:00.450Z,21.4
2017-02-22T09:32:00.326Z,21.32
2017-02-22T09:33:00.496Z,21.37
2017-02-22T09:34:00.128Z,21.34
2017-02-22T09:35:00.152Z,21.37
2017-02-22T09:36:00.197Z,21.4
2017-02-22T09:37:00.057Z,21.35
2017-02-22T09:38:00.239Z,21.4
2017-02-22T09:39:00.260Z,21.29
2017-02-22T09:40:00.684Z,21.34
2017-02-22T09:41:00.325Z,21.42
2017-02-22T09:42:00.604Z,21.35
2017-02-22T09:43:00.375Z,21.31
2017-02-22T09:44:00.796Z,21.31
2017-02-22T09:45:00.436Z,21.31
2017-02-22T09:46:00.057Z,21.28
2017-02-22T09:47:00.770Z,21.32
2017-02-22T09:48:00.914Z,21.31
2017-02-22T09:49:00.551Z,21.37
2017-02-22T09:50:00.568Z,21.28
2017-02-22T09:51:00.601Z,21.27
2017-02-22T09:52:00.618Z,21.21
2017-02-22T09:53:00.246Z,21.35
2017-02-22T09:54:00.275Z,21.31
2017-02-22T09:55:00.323Z,21.22
2017-02-22T09:56:00.748Z,21.32
2017-02-22T09:57:00.778Z,21.27
2017-02-22T09:58:00.782Z,21.19
2017-02-22T09:59:00.814Z,21.28
2017-02-22T10:00:01.240Z,21.28
2017-02-22T10:01:01.260Z,21.28
2017-02-22T10:02:01.305Z,21.31
2017-02-22T10:03:00.919Z,21.32
2017-02-22T10:04:00.546Z,21.32
2017-02-22T10:05:00.999Z,21.28
2017-02-22T10:06:00.625Z,21.24
2017-02-22T10:07:00.641Z,21.25
2017-02-22T10:08:01.053Z,21.28
2017-02-22T10:09:01.482Z,21.25
2017-02-22T10:10:01.127Z,21.29
2017-02-22T10:11:01.532Z,21.29
2017-02-22T10:12:01.189Z,21.28
2017-02-22T10:13:01.200Z,21.22
2017-02-22T10:14:01.622Z,21.22
2017-02-22T10:15:01.638Z,21.32
2017-02-22T10:16:01.295Z,21.19
2017-02-22T10:17:01.293Z,21.24
2017-02-22T10:18:01.326Z,21.24
2017-02-22T10:19:01.346Z,21.24
2017-02-22T10:20:00.993Z,21.19
2017-02-22T10:21:01.431Z,21.19
2017-02-22T10:22:01.041Z,21.19
2017-02-22T10:23:01.716Z,21.17
2017-02-22T10:24:01.489Z,21.21
2017-02-22T10:25:01.546Z,21.17
2017-02-22T10:26:01.546Z,21.21
2017-02-22T10:27:01.191Z,21.1
2017-02-22T10:28:01.852Z,21.16
2017-02-22T10:29:01.636Z,21.13
2017-02-22T10:30:01.653Z,21.21
2017-02-22T10:31:01.690Z,21.1
2017-02-22T10:32:01.717Z,21.16
2017-02-22T10:33:01.992Z,21.16
2017-02-22T10:34:01.764Z,21.17
2017-02-22T10:35:02.185Z,21.22
2017-02-22T10:36:02.218Z,21.14
2017-02-22T10:37:01.861Z,21.1
2017-02-22T10:38:02.523Z,21.12
2017-02-22T10:39:01.898Z,21.14
2017-02-22T10:40:02.316Z,21.1
2017-02-22T10:41:01.569Z,21.1
2017-02-22T10:42:01.586Z,21.17
2017-02-22T10:43:01.867Z,21.12
2017-02-22T10:44:02.435Z,21.12
2017-02-22T10:45:02.072Z,21.06
2017-02-22T10:46:02.093Z,21.17
2017-02-22T10:47:02.130Z,21.1
2017-02-22T10:48:02.786Z,21.13
2017-02-22T10:49:02.175Z,21.12
2017-02-22T10:50:02.600Z,21.13
2017-02-22T10:51:02.614Z,21.19
2017-02-22T10:52:02.646Z,21.16
2017-02-22T10:53:02.565Z,21.17
2017-02-22T10:54:02.703Z,21.12
2017-02-22T10:55:02.335Z,21.13
2017-02-22T10:56:02.756Z,21.13
2017-02-22T10:57:02.397Z,21.03
2017-02-22T10:58:03.060Z,21.13
2017-02-22T10:59:02.455Z,21.13
2017-02-22T11:00:02.469Z,21.19
2017-02-22T11:01:02.497Z,21.12
2017-02-22T11:02:02.925Z,21.1
2017-02-22T11:03:02.817Z,21.13
2017-02-22T11:04:02.971Z,21.19
2017-02-22T11:05:03.006Z,21.13
2017-02-22T11:06:02.624Z,21.13
2017-02-22T11:07:02.661Z,21.13
2017-02-22T11:08:02.949Z,21.13
2017-02-22T11:09:02.718Z,21.13
2017-02-22T11:10:02.339Z,21.13
2017-02-22T11:11:02.763Z,21.1
2017-02-22T11:12:03.199Z,21.1
2017-02-22T11:13:03.066Z,21.1
2017-02-22T11:14:02.874Z,21.14
2017-02-22T11:15:03.275Z,21.04
2017-02-22T11:16:02.508Z,21.14
2017-02-22T11:17:02.964Z,21.09
2017-02-22T11:18:03.213Z,21.06
2017-02-22T11:19:02.993Z,21.13
2017-02-22T11:20:03.019Z,21.07
2017-02-22T11:21:03.469Z,21.13
2017-02-22T11:22:03.071Z,21.04
2017-02-22T11:23:02.953Z,21.1
2017-02-22T11:24:03.145Z,21.04
2017-02-22T11:25:03.159Z,21.04
2017-02-22T11:26:03.179Z,21.09
2017-02-22T11:27:03.612Z,21.06
2017-02-22T11:28:03.509Z,21.09
2017-02-22T11:29:03.662Z,21.07
2017-02-22T11:30:03.677Z,21.09
2017-02-22T11:31:03.723Z,21.1
2017-02-22T11:32:03.335Z,21.04
2017-02-22T11:33:04.008Z,21.1
2017-02-22T11:34:03.793Z,21.06
2017-02-22T11:35:03.439Z,21.04
2017-02-22T11:36:03.447Z,21.04
2017-02-22T11:37:03.480Z,21.1
2017-02-22T11:38:03.751Z,21.06
2017-02-22T11:39:03.933Z,21.06
2017-02-22T11:40:03.157Z,21.06
2017-02-22T11:41:03.583Z,21.06
2017-02-22T11:42:03.612Z,21.07
2017-02-22T11:43:04.284Z,21.03
2017-02-22T11:44:03.682Z,21.07
2017-02-22T11:45:03.304Z,21.07
2017-02-22T11:46:03.335Z,21.04
2017-02-22T11:47:04.147Z,21.1
2017-02-22T11:48:04.043Z,21.03
2017-02-22T11:49:03.409Z,20.99
2017-02-22T11:50:03.833Z,21.06
2017-02-22T11:51:03.858Z,21.07
2017-02-22T11:52:03.887Z,21.03
2017-02-22T11:53:04.175Z,21.06
2017-02-22T11:54:03.537Z,21.03
2017-02-22T11:55:04.362Z,21.06
2017-02-22T11:56:04.391Z,21.07
2017-02-22T11:57:04.407Z,21.09
2017-02-22T11:58:03.659Z,21.06
2017-02-22T11:59:04.076Z,21.04
2017-02-22T12:00:04.497Z,21.07
2017-02-22T12:01:04.530Z,21.03
2017-02-22T12:02:04.563Z,21.04
2017-02-22T12:03:04.179Z,21.06
2017-02-22T12:04:04.199Z,21.07
2017-02-22T12:05:04.249Z,21.04
2017-02-22T12:06:04.274Z,21.06
2017-02-22T12:07:03.911Z,21.01
2017-02-22T12:08:04.313Z,21.04
2017-02-22T12:09:04.741Z,21.07
2017-02-22T12:10:04.377Z,21.04
2017-02-22T12:11:04.394Z,21.04
2017-02-22T12:12:04.815Z,21.07
2017-02-22T12:13:04.834Z,21.04
2017-02-22T12:14:04.869Z,21.09
2017-02-22T12:15:04.905Z,21.07
2017-02-22T12:16:04.542Z,21.13
2017-02-22T12:17:04.966Z,21.09
2017-02-22T12:18:04.595Z,21.09
2017-02-22T12:19:05.008Z,21.07
2017-02-22T12:20:04.269Z,21.1
2017-02-22T12:21:04.722Z,21.04
2017-02-22T12:22:04.714Z,21.06
2017-02-22T12:23:04.719Z,21.07
2017-02-22T12:24:04.771Z,21.04
2017-02-22T12:25:05.189Z,21.09
2017-02-22T12:26:04.809Z,21.1
2017-02-22T12:27:05.231Z,21.01
2017-02-22T12:28:05.270Z,21.12
2017-02-22T12:29:05.532Z,21.1
2017-02-22T12:30:04.517Z,21.06
2017-02-22T12:31:05.341Z,21.1
2017-02-22T12:32:05.370Z,21.16
2017-02-22T12:33:05.388Z,21.14
2017-02-22T12:34:05.668Z,21.13
2017-02-22T12:35:05.447Z,21.1
2017-02-22T12:36:05.103Z,21.09
2017-02-22T12:37:05.115Z,21.06
2017-02-22T12:38:05.122Z,21.12
2017-02-22T12:39:05.408Z,21.06
2017-02-22T12:40:04.788Z,21.12
2017-02-22T12:41:05.209Z,21.1
2017-02-22T12:42:04.833Z,21.07
2017-02-22T12:43:05.261Z,21.06
2017-02-22T12:44:05.947Z,21.07
2017-02-22T12:45:05.315Z,21.09
2017-02-22T12:46:05.757Z,21.01
2017-02-22T12:47:05.781Z,21.04
2017-02-22T12:48:05.797Z,21.06
2017-02-22T12:49:05.690Z,21.06
2017-02-22T12:50:05.455Z,21.13
2017-02-22T12:51:05.480Z,21.07
2017-02-22T12:52:05.521Z,21.04
2017-02-22T12:53:05.930Z,21.06
2017-02-22T12:54:05.816Z,20.97
2017-02-22T12:55:05.195Z,20.99
2017-02-22T12:56:05.620Z,21.03